KTEX/TEX METAR and TAF weather

Enter ICAO airport designator
Station Type Date Time Source
KTEX METAR 2019/12/09 13:55 UTC NOAA

KTEX 091355Z AUTO 00000KT 10SM OVC035 M05/M06 A2999 RMK AO2


Station Type Date Time Source
KTEX Decoded METAR 2019/12/09 13:55 UTC NOAA

Telluride, Telluride Regional Airport, CO, United States (KTEX) 37-57-14N 107-54-31W
Dec 09, 2019 - 08:55 AM EST / 2019.12.09 1355 UTC
Wind: Calm:0
Visibility: 10 mile(s):0
Sky conditions: overcast
Temperature: 23 F (-5 C)
Dew Point: 21 F (-6 C)
Relative Humidity: 92%
Pressure (altimeter): 29.99 in. Hg (1015 hPa)
ob: KTEX 091355Z AUTO 00000KT 10SM OVC035 M05/M06 A2999 RMK AO2
cycle: 14

Station Type Date Time Source
KTEX TAF 2019/12/09 14:52 UTC NOAA

TAF
AMD KTEX 091350Z 0914/1012 00000KT P6SM -SN OVC035
FM091500 VRB03KT P6SM SCT010 SCT035
FM091900 28005KT P6SM FEW040 SCT090
FM100200 13005KT P6SM FEW050 FEW100

Example: see airport list